createdAt,value
2023-02-03T00:01:36.035Z,96.09
2023-02-03T00:04:02.698Z,96.10
2023-02-03T00:06:30.930Z,96.30
2023-02-03T00:08:59.554Z,96.17
2023-02-03T00:11:26.783Z,96.29
2023-02-03T00:13:53.450Z,96.14
2023-02-03T00:16:20.193Z,96.31
2023-02-03T00:18:46.845Z,96.42
2023-02-03T00:21:15.180Z,96.53
2023-02-03T00:23:42.522Z,96.72
2023-02-03T00:26:11.071Z,96.68
2023-02-03T00:28:38.016Z,96.76
2023-02-03T00:31:04.980Z,96.73
2023-02-03T00:33:33.745Z,96.81
2023-02-03T00:36:06.170Z,96.74
2023-02-03T00:38:32.847Z,96.91
2023-02-03T00:40:59.496Z,96.96
2023-02-03T00:43:26.527Z,97.05
2023-02-03T00:45:53.167Z,97.12
2023-02-03T00:48:20.703Z,97.13
2023-02-03T00:50:47.759Z,97.21
2023-02-03T00:53:14.867Z,97.36
2023-02-03T00:55:43.816Z,97.27
2023-02-03T00:58:10.935Z,97.39
2023-02-03T01:00:37.807Z,97.38
2023-02-03T01:03:04.845Z,97.45
2023-02-03T01:05:31.574Z,97.43
2023-02-03T01:07:58.259Z,97.59
2023-02-03T01:10:25.369Z,97.69
2023-02-03T01:12:52.211Z,97.66
2023-02-03T01:15:18.950Z,97.90
2023-02-03T01:17:45.674Z,97.89
2023-02-03T01:20:13.944Z,98.02
2023-02-03T01:22:40.752Z,98.15
2023-02-03T01:25:08.156Z,98.25
2023-02-03T01:27:34.893Z,98.22
2023-02-03T01:30:01.583Z,98.59
2023-02-03T01:32:28.355Z,98.82
2023-02-03T01:34:55.062Z,98.76
2023-02-03T01:37:21.749Z,98.81
2023-02-03T01:39:48.433Z,98.94
2023-02-03T01:42:16.116Z,99.16
2023-02-03T01:44:46.006Z,99.24
2023-02-03T01:47:31.245Z,99.33
2023-02-03T01:50:03.759Z,99.39
2023-02-03T01:52:32.463Z,99.60
2023-02-03T01:55:02.982Z,99.85
2023-02-03T01:57:48.612Z,100.00
2023-02-03T02:00:15.637Z,100.00
2023-02-03T02:02:46.035Z,100.00
2023-02-03T02:05:35.249Z,100.00
2023-02-03T02:08:04.274Z,100.00
2023-02-03T02:10:31.853Z,100.00
2023-02-03T02:13:00.601Z,100.00
2023-02-03T02:15:40.297Z,100.00
2023-02-03T02:18:25.183Z,100.00
2023-02-03T02:21:07.095Z,100.00
2023-02-03T02:23:53.321Z,100.00
2023-02-03T02:26:52.420Z,100.00
2023-02-03T02:29:43.328Z,100.00
2023-02-03T02:32:24.844Z,100.00
2023-02-03T02:35:14.404Z,100.00
2023-02-03T02:38:07.571Z,100.00
2023-02-03T02:40:41.853Z,100.00
2023-02-03T02:43:23.206Z,100.00
2023-02-03T02:45:51.177Z,100.00
2023-02-03T02:48:36.822Z,100.00
2023-02-03T02:51:07.770Z,100.00
2023-02-03T02:53:38.223Z,100.00
2023-02-03T02:56:09.766Z,100.00
2023-02-03T02:58:41.311Z,100.00
2023-02-03T03:01:11.813Z,100.00
2023-02-03T03:03:42.815Z,100.00
2023-02-03T03:06:15.521Z,100.00
2023-02-03T03:08:45.751Z,100.00
2023-02-03T03:11:12.793Z,100.00
2023-02-03T03:13:45.549Z,100.00
2023-02-03T03:16:14.847Z,100.00
2023-02-03T03:18:49.275Z,100.00
2023-02-03T03:21:26.965Z,100.00
2023-02-03T03:23:57.682Z,100.00
2023-02-03T03:26:35.763Z,100.00
2023-02-03T03:29:05.347Z,100.00
2023-02-03T03:31:32.278Z,100.00
2023-02-03T03:33:59.291Z,100.00
2023-02-03T03:36:30.578Z,100.00
2023-02-03T03:39:15.334Z,100.00
2023-02-03T03:41:50.926Z,100.00
2023-02-03T03:44:19.397Z,100.00
2023-02-03T03:47:02.420Z,100.00
2023-02-03T03:49:29.670Z,100.00
2023-02-03T03:52:04.305Z,100.00
2023-02-03T03:54:32.782Z,100.00
2023-02-03T03:57:09.898Z,100.00
2023-02-03T03:59:40.849Z,100.00
2023-02-03T04:02:07.738Z,100.00
2023-02-03T04:04:37.560Z,100.00
2023-02-03T04:07:04.644Z,100.00
2023-02-03T04:09:31.721Z,100.00
2023-02-03T04:12:05.976Z,100.00
2023-02-03T04:14:35.522Z,100.00
2023-02-03T04:17:02.196Z,100.00
2023-02-03T04:19:28.892Z,100.00
2023-02-03T04:21:55.743Z,100.00
2023-02-03T04:24:22.475Z,100.00
2023-02-03T04:26:49.162Z,100.00
2023-02-03T04:29:15.807Z,100.00
2023-02-03T04:31:42.481Z,100.00
2023-02-03T04:34:09.174Z,100.00
2023-02-03T04:36:35.850Z,100.00
2023-02-03T04:39:02.535Z,100.00
2023-02-03T04:41:29.210Z,100.00
2023-02-03T04:43:55.854Z,100.00
2023-02-03T04:46:22.568Z,100.00
2023-02-03T04:48:49.258Z,100.00
2023-02-03T04:51:16.050Z,100.00
2023-02-03T04:53:42.679Z,100.00
2023-02-03T04:56:09.333Z,100.00
2023-02-03T04:58:37.178Z,100.00
2023-02-03T05:01:10.329Z,100.00
2023-02-03T05:03:37.685Z,100.00
2023-02-03T05:06:06.049Z,100.00
2023-02-03T05:08:33.739Z,100.00
2023-02-03T05:11:02.126Z,100.00
2023-02-03T05:13:29.461Z,100.00
2023-02-03T05:15:56.178Z,100.00
2023-02-03T05:18:22.896Z,100.00
2023-02-03T05:20:49.556Z,100.00
2023-02-03T05:23:17.271Z,100.00
2023-02-03T05:25:45.451Z,100.00
2023-02-03T05:28:12.259Z,100.00
2023-02-03T05:30:38.991Z,100.00
2023-02-03T05:33:05.686Z,100.00
2023-02-03T05:35:32.391Z,100.00
2023-02-03T05:37:59.623Z,100.00
2023-02-03T05:40:45.136Z,100.00
2023-02-03T05:43:12.520Z,100.00
2023-02-03T05:45:39.307Z,100.00
2023-02-03T05:48:07.446Z,100.00
2023-02-03T05:50:38.597Z,100.00
2023-02-03T05:53:06.991Z,100.00
2023-02-03T05:55:34.210Z,100.00
2023-02-03T05:58:01.264Z,100.00
2023-02-03T06:00:28.809Z,100.00
2023-02-03T06:02:58.191Z,100.00
2023-02-03T06:05:26.458Z,100.00
2023-02-03T06:07:53.131Z,100.00
2023-02-03T06:10:20.240Z,100.00
2023-02-03T06:12:47.632Z,100.00
2023-02-03T06:15:14.625Z,100.00
2023-02-03T06:17:48.243Z,100.00
2023-02-03T06:20:16.845Z,100.00
2023-02-03T06:22:43.984Z,100.00
2023-02-03T06:25:13.033Z,100.00
2023-02-03T06:27:45.729Z,100.00
2023-02-03T06:30:12.849Z,100.00
2023-02-03T06:32:39.531Z,100.00
2023-02-03T06:35:06.444Z,100.00
2023-02-03T06:37:33.150Z,100.00
2023-02-03T06:39:59.836Z,100.00
2023-02-03T06:42:26.448Z,100.00
2023-02-03T06:44:53.665Z,100.00
2023-02-03T06:47:20.363Z,100.00
2023-02-03T06:49:47.786Z,100.00
2023-02-03T06:52:15.638Z,100.00
2023-02-03T06:54:42.227Z,100.00
2023-02-03T06:57:09.220Z,100.00
2023-02-03T06:59:35.832Z,100.00
2023-02-03T07:02:02.515Z,100.00
2023-02-03T07:04:30.243Z,100.00
2023-02-03T07:06:57.813Z,100.00
2023-02-03T07:09:24.653Z,100.00
2023-02-03T07:11:51.226Z,100.00
2023-02-03T07:14:17.955Z,100.00
2023-02-03T07:16:44.593Z,100.00
2023-02-03T07:19:11.290Z,100.00
2023-02-03T07:21:37.913Z,100.00
2023-02-03T07:24:04.881Z,100.00
2023-02-03T07:26:31.539Z,100.00
2023-02-03T07:29:00.826Z,100.00
2023-02-03T07:31:28.148Z,100.00
2023-02-03T07:33:54.882Z,100.00
2023-02-03T07:36:21.580Z,100.00
2023-02-03T07:38:48.189Z,100.00
2023-02-03T07:41:17.642Z,100.00
2023-02-03T07:43:44.669Z,100.00
2023-02-03T07:46:11.568Z,100.00
2023-02-03T07:48:38.357Z,100.00
2023-02-03T07:51:05.488Z,100.00
2023-02-03T07:53:32.522Z,100.00
2023-02-03T07:56:03.637Z,100.00
2023-02-03T07:58:31.289Z,100.00
2023-02-03T08:00:59.134Z,100.00
2023-02-03T08:03:25.808Z,100.00
2023-02-03T08:05:53.560Z,100.00
2023-02-03T08:08:20.253Z,100.00
2023-02-03T08:10:46.999Z,100.00
2023-02-03T08:13:13.811Z,100.00
2023-02-03T08:15:40.476Z,100.00
2023-02-03T08:18:09.252Z,100.00
2023-02-03T08:20:35.938Z,100.00
2023-02-03T08:23:02.595Z,100.00
2023-02-03T08:25:29.272Z,100.00
2023-02-03T08:27:55.937Z,100.00
2023-02-03T08:30:23.542Z,100.00
2023-02-03T08:32:55.519Z,100.00
2023-02-03T08:35:25.700Z,100.00
2023-02-03T08:37:52.423Z,100.00
2023-02-03T08:40:19.158Z,100.00
2023-02-03T08:42:45.838Z,100.00
2023-02-03T08:45:12.522Z,100.00
2023-02-03T08:47:39.442Z,100.00
2023-02-03T08:50:08.133Z,100.00
2023-02-03T08:52:35.089Z,100.00
2023-02-03T08:55:01.799Z,100.00
2023-02-03T08:57:32.377Z,100.00
2023-02-03T08:59:59.036Z,100.00
2023-02-03T09:02:25.828Z,100.00
2023-02-03T09:04:52.844Z,100.00
2023-02-03T09:07:19.672Z,100.00
2023-02-03T09:09:46.358Z,100.00
2023-02-03T09:12:13.436Z,100.00
2023-02-03T09:14:40.305Z,100.00
2023-02-03T09:17:10.160Z,100.00
2023-02-03T09:19:37.020Z,100.00
2023-02-03T09:22:04.360Z,100.00
2023-02-03T09:24:31.193Z,100.00
2023-02-03T09:26:57.850Z,100.00
2023-02-03T09:29:24.526Z,100.00
2023-02-03T09:31:53.047Z,100.00
2023-02-03T09:34:21.171Z,100.00
2023-02-03T09:36:47.951Z,100.00
2023-02-03T09:39:15.833Z,100.00
2023-02-03T09:42:12.585Z,100.00
2023-02-03T09:45:01.096Z,100.00
2023-02-03T09:47:32.631Z,100.00
2023-02-03T09:50:02.766Z,100.00
2023-02-03T09:52:33.481Z,100.00
2023-02-03T09:55:27.052Z,100.00
2023-02-03T09:58:13.952Z,100.00
2023-02-03T10:00:42.834Z,100.00
2023-02-03T10:03:21.783Z,100.00
2023-02-03T10:06:28.149Z,100.00
2023-02-03T10:09:16.531Z,100.00
2023-02-03T10:11:43.091Z,100.00
2023-02-03T10:14:31.139Z,100.00
2023-02-03T10:17:16.565Z,100.00
2023-02-03T10:19:55.220Z,100.00
2023-02-03T10:22:28.495Z,100.00
2023-02-03T10:25:15.987Z,100.00
2023-02-03T10:27:44.055Z,100.00
2023-02-03T10:30:19.943Z,100.00
2023-02-03T10:32:51.069Z,100.00
2023-02-03T10:35:17.712Z,100.00
2023-02-03T10:37:48.978Z,100.00
2023-02-03T10:40:17.085Z,100.00
2023-02-03T10:43:06.456Z,100.00
2023-02-03T10:45:37.596Z,100.00
2023-02-03T10:48:07.253Z,99.97
2023-02-03T10:50:35.478Z,99.59
2023-02-03T10:53:32.722Z,99.32
2023-02-03T10:56:05.447Z,99.04
2023-02-03T10:58:34.248Z,98.96
2023-02-03T11:01:24.072Z,98.78
2023-02-03T11:04:04.090Z,98.74
2023-02-03T11:06:33.063Z,98.42
2023-02-03T11:09:00.805Z,98.02
2023-02-03T11:11:32.599Z,97.85
2023-02-03T11:14:05.059Z,97.61
2023-02-03T11:16:34.985Z,97.68
2023-02-03T11:19:10.228Z,97.36
2023-02-03T11:21:39.617Z,97.13
2023-02-03T11:24:13.577Z,96.85
2023-02-03T11:26:43.727Z,96.61
2023-02-03T11:29:25.421Z,96.25
2023-02-03T11:31:54.362Z,96.17
2023-02-03T11:34:34.512Z,95.65
2023-02-03T11:37:27.010Z,95.47
2023-02-03T11:39:57.708Z,95.26
2023-02-03T11:42:25.297Z,94.76
2023-02-03T11:44:53.330Z,94.64
2023-02-03T11:47:22.757Z,94.12
2023-02-03T11:50:09.860Z,93.86
2023-02-03T11:53:00.314Z,94.10
2023-02-03T11:55:54.712Z,93.89
2023-02-03T11:58:44.524Z,93.43
2023-02-03T12:01:38.707Z,92.98
2023-02-03T12:04:05.480Z,92.75
2023-02-03T12:06:47.370Z,92.38
2023-02-03T12:09:20.890Z,92.46
2023-02-03T12:12:22.860Z,92.40
2023-02-03T12:15:15.484Z,92.29
2023-02-03T12:17:48.244Z,92.15
2023-02-03T12:20:20.165Z,91.96
2023-02-03T12:23:17.385Z,91.87
2023-02-03T12:26:02.342Z,91.48
2023-02-03T12:28:57.084Z,91.28
2023-02-03T12:31:47.063Z,91.04
2023-02-03T12:34:23.279Z,90.94
2023-02-03T12:36:59.573Z,90.74
2023-02-03T12:39:44.860Z,90.37
2023-02-03T12:42:39.813Z,90.09
2023-02-03T12:45:19.414Z,89.88
2023-02-03T12:47:50.724Z,89.51
2023-02-03T12:50:21.789Z,88.93
2023-02-03T12:53:15.677Z,88.94
2023-02-03T12:55:46.473Z,88.63
2023-02-03T12:58:25.123Z,88.53
2023-02-03T13:00:58.610Z,87.96
2023-02-03T13:03:37.457Z,87.88
2023-02-03T13:06:19.291Z,87.87
2023-02-03T13:08:58.249Z,87.47
2023-02-03T13:11:40.829Z,86.90
2023-02-03T13:14:15.612Z,86.31
2023-02-03T13:16:45.589Z,86.70
2023-02-03T13:19:21.318Z,86.30
2023-02-03T13:21:52.744Z,86.04
2023-02-03T13:24:24.854Z,85.68
2023-02-03T13:27:09.643Z,85.05
2023-02-03T13:30:12.192Z,84.88
2023-02-03T13:32:39.285Z,84.61
2023-02-03T13:35:24.829Z,84.62
2023-02-03T13:38:16.257Z,84.74
2023-02-03T13:40:58.351Z,84.69
2023-02-03T13:43:39.461Z,84.45
2023-02-03T13:46:18.656Z,84.19
2023-02-03T13:48:47.013Z,83.81
2023-02-03T13:53:48.763Z,83.43
2023-02-03T13:56:20.845Z,83.14
2023-02-03T13:59:03.686Z,82.90
2023-02-03T14:01:35.848Z,82.95
2023-02-03T14:04:07.028Z,82.48
2023-02-03T14:06:39.723Z,82.23
2023-02-03T14:09:24.734Z,81.79
2023-02-03T14:11:52.732Z,81.79
2023-02-03T14:14:21.866Z,81.43
2023-02-03T14:16:52.674Z,80.99
2023-02-03T14:19:30.380Z,80.73
2023-02-03T14:22:09.151Z,80.38
2023-02-03T14:24:40.583Z,80.32
2023-02-03T14:27:19.740Z,80.24
2023-02-03T14:29:56.327Z,80.18
2023-02-03T14:32:23.006Z,79.91
2023-02-03T14:34:50.702Z,79.16
2023-02-03T14:37:26.888Z,79.13
2023-02-03T14:39:56.340Z,79.06
2023-02-03T14:42:56.079Z,78.52
2023-02-03T14:45:43.826Z,78.82
2023-02-03T14:48:23.490Z,78.74
2023-02-03T14:50:59.417Z,78.50
2023-02-03T14:53:34.117Z,78.47
2023-02-03T14:57:01.687Z,78.50
2023-02-03T14:59:44.271Z,78.43
2023-02-03T15:02:11.047Z,78.10
2023-02-03T15:04:39.703Z,78.03
2023-02-03T15:07:07.752Z,78.30
2023-02-03T15:09:47.295Z,78.17
2023-02-03T15:12:26.190Z,78.34
2023-02-03T15:15:22.540Z,78.42
2023-02-03T15:17:51.735Z,78.21
2023-02-03T15:20:43.711Z,78.15
2023-02-03T15:23:25.756Z,77.99
2023-02-03T15:25:57.315Z,78.18
2023-02-03T15:28:26.118Z,78.06
2023-02-03T15:31:03.223Z,77.75
2023-02-03T15:33:31.970Z,77.83
2023-02-03T15:36:07.458Z,77.90
2023-02-03T15:38:41.691Z,77.65
2023-02-03T15:41:22.350Z,77.55
2023-02-03T15:43:51.947Z,77.60
2023-02-03T15:46:49.581Z,77.59
2023-02-03T15:49:27.272Z,77.47
2023-02-03T15:52:09.448Z,77.65
2023-02-03T15:54:43.249Z,77.54
2023-02-03T15:57:27.795Z,77.40
2023-02-03T15:59:58.979Z,77.58
2023-02-03T16:02:30.709Z,77.85
2023-02-03T16:05:05.910Z,77.62
2023-02-03T16:07:32.600Z,77.83
2023-02-03T16:10:00.063Z,77.68
2023-02-03T16:12:31.889Z,77.77
2023-02-03T16:15:00.277Z,77.92
2023-02-03T16:17:31.530Z,77.86
2023-02-03T16:20:13.493Z,77.88
2023-02-03T16:22:42.657Z,77.99
2023-02-03T16:25:22.793Z,77.99
2023-02-03T16:28:35.769Z,78.10
2023-02-03T16:31:39.982Z,78.10
2023-02-03T16:34:38.067Z,78.18
2023-02-03T16:37:48.888Z,78.28
2023-02-03T16:40:41.220Z,78.32
2023-02-03T16:43:31.982Z,78.39
2023-02-03T16:46:18.514Z,78.50
2023-02-03T16:49:04.002Z,78.30
2023-02-03T16:51:41.984Z,78.59
2023-02-03T16:54:13.852Z,78.72
2023-02-03T16:56:41.059Z,78.77
2023-02-03T16:59:07.741Z,78.94
2023-02-03T17:01:34.426Z,78.83
2023-02-03T17:04:01.132Z,79.29
2023-02-03T17:06:28.049Z,79.11
2023-02-03T17:08:56.626Z,79.12
2023-02-03T17:11:24.437Z,79.29
2023-02-03T17:13:52.108Z,79.39
2023-02-03T17:16:21.304Z,79.31
2023-02-03T17:18:47.989Z,79.27
2023-02-03T17:21:18.638Z,79.22
2023-02-03T17:23:45.346Z,79.25
2023-02-03T17:26:12.447Z,79.62
2023-02-03T17:28:43.250Z,79.59
2023-02-03T17:31:16.093Z,79.71
2023-02-03T17:33:43.177Z,79.82
2023-02-03T17:36:13.763Z,79.87
2023-02-03T17:55:15.137Z,80.80
2023-02-03T17:57:41.779Z,80.95
2023-02-03T18:00:10.077Z,81.26
2023-02-03T18:02:36.768Z,81.44
2023-02-03T18:05:03.467Z,81.55
2023-02-03T18:07:30.041Z,81.69
2023-02-03T18:09:56.611Z,81.94
2023-02-03T18:12:23.336Z,81.70
2023-02-03T18:14:50.029Z,82.17
2023-02-03T18:17:16.843Z,82.14
2023-02-03T18:19:46.694Z,82.35
2023-02-03T18:22:15.795Z,82.39
2023-02-03T18:24:44.948Z,82.50
2023-02-03T18:27:16.826Z,82.62
2023-02-03T18:29:47.812Z,82.86
2023-02-03T18:32:15.778Z,82.79
2023-02-03T18:34:42.529Z,83.09
2023-02-03T18:37:09.428Z,83.78
2023-02-03T18:39:36.230Z,83.80
2023-02-03T18:42:03.665Z,84.13
2023-02-03T18:44:31.678Z,84.21
2023-02-03T18:47:06.576Z,84.34
2023-02-03T18:49:35.772Z,84.47
2023-02-03T18:52:03.355Z,84.73
2023-02-03T18:54:30.847Z,84.67
2023-02-03T18:57:02.979Z,84.89
2023-02-03T18:59:29.808Z,85.15
2023-02-03T19:01:56.548Z,84.79
2023-02-03T19:04:23.293Z,84.94
2023-02-03T19:06:51.421Z,85.16
2023-02-03T19:09:19.364Z,85.24
2023-02-03T19:11:46.240Z,85.45
2023-02-03T19:14:14.264Z,85.57
2023-02-03T19:16:41.013Z,85.59
2023-02-03T19:19:07.856Z,85.49
2023-02-03T19:21:34.526Z,85.86
2023-02-03T19:24:01.435Z,86.10
2023-02-03T19:26:28.280Z,86.09
2023-02-03T19:28:55.944Z,86.33
2023-02-03T19:31:25.810Z,86.43
2023-02-03T19:33:52.478Z,86.67
2023-02-03T19:36:19.286Z,86.94
2023-02-03T19:38:46.016Z,87.12
2023-02-03T19:41:12.811Z,87.29
2023-02-03T19:43:40.197Z,87.18
2023-02-03T19:46:08.246Z,87.41
2023-02-03T19:48:35.376Z,87.42
2023-02-03T19:51:02.018Z,87.54
2023-02-03T19:53:28.730Z,87.55
2023-02-03T19:55:55.353Z,87.62
2023-02-03T19:58:23.536Z,87.75
2023-02-03T20:00:50.486Z,87.92
2023-02-03T20:03:18.204Z,87.90
2023-02-03T20:05:44.875Z,88.04
2023-02-03T20:08:14.976Z,88.16
2023-02-03T20:10:44.471Z,87.98
2023-02-03T20:13:14.567Z,88.20
2023-02-03T20:15:42.089Z,88.48
2023-02-03T20:18:08.882Z,88.38
2023-02-03T20:20:35.601Z,88.43
2023-02-03T20:23:02.303Z,88.63
2023-02-03T20:25:29.234Z,88.68
2023-02-03T20:27:57.491Z,88.75
2023-02-03T20:30:24.129Z,88.69
2023-02-03T20:32:50.828Z,88.75
2023-02-03T20:35:17.576Z,88.77
2023-02-03T20:37:44.211Z,88.94
2023-02-03T20:40:17.354Z,89.06
2023-02-03T20:42:44.255Z,89.06
2023-02-03T20:45:14.283Z,89.11
2023-02-03T20:47:41.416Z,89.27
2023-02-03T20:50:18.333Z,89.21
2023-02-03T20:52:45.930Z,89.25
2023-02-03T20:55:15.410Z,89.38
2023-02-03T20:57:42.020Z,89.44
2023-02-03T21:00:20.615Z,89.61
2023-02-03T21:03:05.989Z,89.59
2023-02-03T21:05:36.835Z,89.42
2023-02-03T21:08:31.134Z,89.78
2023-02-03T21:10:58.072Z,89.95
2023-02-03T21:13:34.507Z,90.03
2023-02-03T21:16:09.620Z,89.99
2023-02-03T21:18:44.409Z,90.29
2023-02-03T21:21:34.873Z,90.45
2023-02-03T21:24:02.338Z,90.39
2023-02-03T21:26:30.822Z,90.66
2023-02-03T21:29:00.132Z,90.64
2023-02-03T21:31:32.152Z,90.86
2023-02-03T21:34:01.414Z,90.84
2023-02-03T21:36:38.823Z,90.95
2023-02-03T21:39:38.340Z,91.09
2023-02-03T21:42:41.239Z,91.21
2023-02-03T21:45:24.997Z,91.52
2023-02-03T21:47:52.937Z,91.60
2023-02-03T21:50:37.183Z,91.65
2023-02-03T21:53:10.133Z,91.81
2023-02-03T21:55:38.206Z,91.98
2023-02-03T21:58:30.434Z,91.86
2023-02-03T22:00:59.818Z,92.25
2023-02-03T22:03:40.787Z,92.02
2023-02-03T22:06:16.367Z,92.27
2023-02-03T22:08:45.998Z,92.20
2023-02-03T22:11:13.675Z,92.42
2023-02-03T22:13:40.551Z,92.62
2023-02-03T22:16:07.567Z,92.64
2023-02-03T22:18:34.613Z,92.63
2023-02-03T22:21:03.274Z,92.79
2023-02-03T22:23:30.228Z,92.88
2023-02-03T22:25:56.905Z,92.85
2023-02-03T22:28:23.687Z,93.23
2023-02-03T22:30:50.492Z,92.99
2023-02-03T22:33:17.220Z,93.00
2023-02-03T22:35:44.249Z,93.05
2023-02-03T22:38:10.953Z,93.03
2023-02-03T22:40:37.653Z,93.04
2023-02-03T22:43:04.414Z,93.07
2023-02-03T22:45:31.121Z,92.91
2023-02-03T22:48:00.273Z,93.11
2023-02-03T22:50:35.868Z,93.08
2023-02-03T22:53:04.316Z,93.13
2023-02-03T22:55:31.723Z,93.02
2023-02-03T22:57:59.319Z,93.10
2023-02-03T23:00:26.676Z,93.15
2023-02-03T23:02:53.946Z,93.31
2023-02-03T23:05:21.324Z,93.05
2023-02-03T23:07:49.694Z,92.97
2023-02-03T23:10:23.971Z,93.03
2023-02-03T23:12:51.267Z,93.41
2023-02-03T23:15:18.538Z,93.13
2023-02-03T23:17:45.380Z,92.82
2023-02-03T23:20:13.610Z,92.97
2023-02-03T23:22:40.226Z,93.03
2023-02-03T23:25:07.272Z,92.75
2023-02-03T23:27:33.930Z,93.02
2023-02-03T23:30:00.611Z,92.93
2023-02-03T23:32:27.706Z,92.92
2023-02-03T23:35:12.855Z,92.89
2023-02-03T23:37:39.546Z,92.93
2023-02-03T23:40:07.283Z,92.77
2023-02-03T23:42:33.917Z,92.86
2023-02-03T23:45:00.523Z,92.86
2023-02-03T23:47:27.090Z,93.00
2023-02-03T23:49:53.731Z,92.92
2023-02-03T23:52:20.697Z,92.98
2023-02-03T23:54:47.289Z,92.90
2023-02-03T23:57:13.946Z,92.93
2023-02-03T23:59:40.583Z,92.95
